KCNC

Chariton Municipal Airport

Chariton, Iowa, USA
METAR KCNC 231015Z AUTO 35006KT 10SM CLR 03/M01 A3029 RMK AO2
Observed Flight Rules
Oct-23 @ 10:15 UTC (18 minutes ago) Visual Flight Rules
Wind Visibility Clouds
350° at 6 knots 10 miles
  • Clear skies
Temperatures Readings
Current 3°C / 37°F
Dewpoint -1°C / 30°F
Humidity 75%
Altimeter 30.29" Hg
Pressure 1026 hPa
Elevation 320
METAR KCNC 231015Z AUTO 35006KT 10SM CLR 03/M01 A3029 RMK AO2
Observed Flight Rules
Oct-23 @ 10:15 UTC
(18 minutes ago)
VFR
Wind Visibility
350° at 6 knots 10 miles
Clouds
  • Clear skies
Temperature Dewpoint
3°C / 37°F -1°C / 30°F
Humidity Altimeter Pressure
75% 30.29" Hg 1026 hPa